createdAt,value
2023-02-11T00:00:34.202Z,8.70
2023-02-11T00:03:01.699Z,8.70
2023-02-11T00:05:28.838Z,8.70
2023-02-11T00:07:55.736Z,8.70
2023-02-11T00:10:22.557Z,8.70
2023-02-11T00:12:49.266Z,8.80
2023-02-11T00:15:16.567Z,8.70
2023-02-11T00:17:43.292Z,8.70
2023-02-11T00:20:10.340Z,8.70
2023-02-11T00:22:38.510Z,8.80
2023-02-11T00:25:05.539Z,8.80
2023-02-11T00:27:32.392Z,8.70
2023-02-11T00:30:00.521Z,8.70
2023-02-11T00:32:27.211Z,8.80
2023-02-11T00:34:55.269Z,8.80
2023-02-11T00:37:22.431Z,8.80
2023-02-11T00:39:50.305Z,8.80
2023-02-11T00:42:17.137Z,8.80
2023-02-11T00:44:43.854Z,8.80
2023-02-11T00:47:10.558Z,8.80
2023-02-11T00:49:39.565Z,8.80
2023-02-11T00:52:06.476Z,8.80
2023-02-11T00:54:33.181Z,8.80
2023-02-11T00:56:59.853Z,8.80
2023-02-11T00:59:27.450Z,8.80
2023-02-11T01:01:54.292Z,8.80
2023-02-11T01:04:21.103Z,8.80
2023-02-11T01:06:48.161Z,8.80
2023-02-11T01:09:14.915Z,8.80
2023-02-11T01:11:41.575Z,8.80
2023-02-11T01:14:08.526Z,8.80
2023-02-11T01:16:35.198Z,8.70
2023-02-11T01:19:01.991Z,8.70
2023-02-11T01:21:28.828Z,8.70
2023-02-11T01:23:55.575Z,8.70
2023-02-11T01:26:22.433Z,8.70
2023-02-11T01:28:49.187Z,8.70
2023-02-11T01:31:16.077Z,8.70
2023-02-11T01:33:42.813Z,8.70
2023-02-11T01:36:11.166Z,8.70
2023-02-11T01:38:37.964Z,8.70
2023-02-11T01:41:06.654Z,8.70
2023-02-11T01:43:39.339Z,8.70
2023-02-11T01:46:31.018Z,8.70
2023-02-11T01:49:08.675Z,8.70
2023-02-11T01:52:06.393Z,8.70
2023-02-11T01:54:53.449Z,8.70
2023-02-11T01:57:22.132Z,8.60
2023-02-11T01:59:55.437Z,8.70
2023-02-11T02:02:24.061Z,8.70
2023-02-11T02:04:53.975Z,8.60
2023-02-11T02:07:49.057Z,8.70
2023-02-11T02:10:18.075Z,8.70
2023-02-11T02:12:44.794Z,8.70
2023-02-11T02:15:26.644Z,8.70
2023-02-11T02:18:02.307Z,8.70
2023-02-11T02:20:43.553Z,8.70
2023-02-11T02:23:13.293Z,8.70
2023-02-11T02:25:52.193Z,8.70
2023-02-11T02:28:27.697Z,8.70
2023-02-11T02:30:57.581Z,8.70
2023-02-11T02:33:35.445Z,8.80
2023-02-11T02:36:37.348Z,8.80
2023-02-11T02:39:09.240Z,8.80
2023-02-11T02:41:35.982Z,8.80
2023-02-11T02:44:02.876Z,8.80
2023-02-11T02:46:31.583Z,8.80
2023-02-11T02:48:58.843Z,8.80
2023-02-11T02:51:46.776Z,8.80
2023-02-11T02:54:19.699Z,8.80
2023-02-11T02:56:51.955Z,8.80
2023-02-11T02:59:41.498Z,8.80
2023-02-11T03:02:29.704Z,8.80
2023-02-11T03:05:06.839Z,8.80
2023-02-11T03:08:32.470Z,8.80
2023-02-11T03:10:59.334Z,8.80
2023-02-11T03:13:29.098Z,8.80
2023-02-11T03:15:56.450Z,8.80
2023-02-11T03:18:25.384Z,8.80
2023-02-11T03:20:53.548Z,8.80
2023-02-11T03:23:24.984Z,8.70
2023-02-11T03:26:18.695Z,8.70
2023-02-11T03:29:15.545Z,8.70
2023-02-11T03:32:05.884Z,8.70
2023-02-11T03:34:48.810Z,8.70
2023-02-11T03:37:40.124Z,8.70
2023-02-11T03:40:15.271Z,8.70
2023-02-11T03:42:46.095Z,8.70
2023-02-11T03:45:18.576Z,8.70
2023-02-11T03:47:48.696Z,8.70
2023-02-11T03:50:15.738Z,8.70
2023-02-11T03:52:43.032Z,8.60
2023-02-11T03:55:12.599Z,8.60
2023-02-11T03:57:39.287Z,8.60
2023-02-11T04:00:06.964Z,8.60
2023-02-11T04:02:34.828Z,8.60
2023-02-11T04:05:01.673Z,8.60
2023-02-11T04:07:28.507Z,8.60
2023-02-11T04:09:55.458Z,8.60
2023-02-11T04:12:22.187Z,8.50
2023-02-11T04:14:48.900Z,8.50
2023-02-11T04:17:15.682Z,8.50
2023-02-11T04:19:42.396Z,8.50
2023-02-11T04:22:09.097Z,8.50
2023-02-11T04:24:35.895Z,8.50
2023-02-11T04:27:02.818Z,8.50
2023-02-11T04:29:29.564Z,8.50
2023-02-11T04:31:56.765Z,8.50
2023-02-11T04:34:24.497Z,8.50
2023-02-11T04:36:51.304Z,8.50
2023-02-11T04:39:18.511Z,8.50
2023-02-11T04:41:45.315Z,8.50
2023-02-11T04:44:12.003Z,8.50
2023-02-11T04:46:38.688Z,8.50
2023-02-11T04:49:06.040Z,8.50
2023-02-11T04:51:32.879Z,8.50
2023-02-11T04:53:59.562Z,8.50
2023-02-11T04:56:26.622Z,8.60
2023-02-11T04:58:54.058Z,8.60
2023-02-11T05:01:20.810Z,8.60
2023-02-11T05:03:47.550Z,8.60
2023-02-11T05:06:14.338Z,8.60
2023-02-11T05:08:41.065Z,8.60
2023-02-11T05:11:08.755Z,8.60
2023-02-11T05:13:35.515Z,8.60
2023-02-11T05:16:02.267Z,8.60
2023-02-11T05:18:28.949Z,8.70
2023-02-11T05:20:55.692Z,8.70
2023-02-11T05:23:22.417Z,8.70
2023-02-11T05:25:49.418Z,8.60
2023-02-11T05:28:16.488Z,8.60
2023-02-11T05:30:43.317Z,8.60
2023-02-11T05:33:10.097Z,8.60
2023-02-11T05:35:37.239Z,8.60
2023-02-11T05:38:03.934Z,8.60
2023-02-11T05:40:30.621Z,8.60
2023-02-11T05:42:57.435Z,8.60
2023-02-11T05:45:24.169Z,8.60
2023-02-11T05:47:50.928Z,8.60
2023-02-11T05:50:17.716Z,8.60
2023-02-11T05:52:44.410Z,8.60
2023-02-11T05:55:11.198Z,8.60
2023-02-11T05:57:37.981Z,8.60
2023-02-11T06:00:05.337Z,8.60
2023-02-11T06:02:32.123Z,8.60
2023-02-11T06:04:58.896Z,8.60
2023-02-11T06:07:25.818Z,8.60
2023-02-11T06:09:52.534Z,8.60
2023-02-11T06:12:19.268Z,8.70
2023-02-11T06:14:46.104Z,8.60
2023-02-11T06:17:15.327Z,8.70
2023-02-11T06:19:42.440Z,8.70
2023-02-11T06:22:09.158Z,8.70
2023-02-11T06:24:54.964Z,8.70
2023-02-11T06:27:23.693Z,8.70
2023-02-11T06:29:52.428Z,8.70
2023-02-11T06:32:39.584Z,8.70
2023-02-11T06:35:09.993Z,8.70
2023-02-11T06:37:38.119Z,8.70
2023-02-11T06:40:07.577Z,8.70
2023-02-11T06:42:36.255Z,8.80
2023-02-11T06:45:06.053Z,8.80
2023-02-11T06:47:33.343Z,8.80
2023-02-11T06:50:00.023Z,8.80
2023-02-11T06:52:26.808Z,8.80
2023-02-11T06:54:53.522Z,8.80
2023-02-11T06:57:20.271Z,8.80
2023-02-11T06:59:47.126Z,8.80
2023-02-11T07:02:14.270Z,8.80
2023-02-11T07:04:41.192Z,8.80
2023-02-11T07:07:07.961Z,8.80
2023-02-11T07:09:34.673Z,8.80
2023-02-11T07:12:01.364Z,8.80
2023-02-11T07:14:28.093Z,8.80
2023-02-11T07:16:54.850Z,8.80
2023-02-11T07:19:21.713Z,8.70
2023-02-11T07:21:48.832Z,8.80
2023-02-11T07:24:15.679Z,8.80
2023-02-11T07:26:42.416Z,8.80
2023-02-11T07:29:09.119Z,8.80
2023-02-11T07:31:36.489Z,8.80
2023-02-11T07:34:03.536Z,8.80
2023-02-11T07:36:31.830Z,8.80
2023-02-11T07:38:59.183Z,8.90
2023-02-11T07:41:26.078Z,8.90
2023-02-11T07:43:52.794Z,8.90
2023-02-11T07:46:21.382Z,8.80
2023-02-11T07:48:48.140Z,8.90
2023-02-11T07:51:19.861Z,8.90
2023-02-11T07:53:46.662Z,8.90
2023-02-11T07:56:14.061Z,9.00
2023-02-11T07:58:43.753Z,9.00
2023-02-11T08:01:12.966Z,9.00
2023-02-11T08:03:39.933Z,9.00
2023-02-11T08:06:11.291Z,9.10
2023-02-11T08:08:38.130Z,9.10
2023-02-11T08:11:37.692Z,9.10
2023-02-11T08:14:04.365Z,9.10
2023-02-11T08:16:32.897Z,9.10
2023-02-11T08:19:01.639Z,9.20
2023-02-11T08:21:28.483Z,9.10
2023-02-11T08:23:55.335Z,9.20
2023-02-11T08:26:25.036Z,9.10
2023-02-11T08:28:52.535Z,9.20
2023-02-11T08:31:30.370Z,9.20
2023-02-11T08:34:02.157Z,9.20
2023-02-11T08:36:30.893Z,9.20
2023-02-11T08:39:16.077Z,9.30
2023-02-11T08:41:44.707Z,9.30
2023-02-11T08:44:11.573Z,9.40
2023-02-11T08:46:38.337Z,9.50
2023-02-11T08:49:05.227Z,9.50
2023-02-11T08:51:32.989Z,9.50
2023-02-11T08:53:59.967Z,9.60
2023-02-11T08:56:26.887Z,9.60
2023-02-11T08:58:53.857Z,9.70
2023-02-11T09:01:25.698Z,9.70
2023-02-11T09:03:52.840Z,9.80
2023-02-11T09:06:19.861Z,9.80
2023-02-11T09:08:49.127Z,9.80
2023-02-11T09:11:16.465Z,9.90
2023-02-11T09:13:43.454Z,9.90
2023-02-11T09:16:35.928Z,9.90
2023-02-11T09:19:04.004Z,9.90
2023-02-11T09:21:30.878Z,9.90
2023-02-11T09:23:57.695Z,9.90
2023-02-11T09:26:26.847Z,9.90
2023-02-11T09:28:53.748Z,9.90
2023-02-11T09:31:23.047Z,10.00
2023-02-11T09:33:52.150Z,10.00
2023-02-11T09:36:21.227Z,10.10
2023-02-11T09:38:48.148Z,10.10
2023-02-11T09:41:23.692Z,10.20
2023-02-11T09:43:54.632Z,10.10
2023-02-11T09:46:21.892Z,10.20
2023-02-11T09:48:49.328Z,10.20
2023-02-11T09:51:20.526Z,10.20
2023-02-11T09:53:47.206Z,10.30
2023-02-11T09:56:14.915Z,10.30
2023-02-11T09:58:43.105Z,10.30
2023-02-11T10:01:36.127Z,10.30
2023-02-11T10:04:25.200Z,10.40
2023-02-11T10:07:18.653Z,10.40
2023-02-11T10:10:09.673Z,10.50
2023-02-11T10:12:49.801Z,10.50
2023-02-11T10:15:45.750Z,10.60
2023-02-11T10:18:26.633Z,10.60
2023-02-11T10:21:05.455Z,10.60
2023-02-11T10:23:35.068Z,10.60
2023-02-11T10:26:01.852Z,10.70
2023-02-11T10:28:33.581Z,10.70
2023-02-11T10:31:09.495Z,10.70
2023-02-11T10:33:46.640Z,10.70
2023-02-11T10:36:14.372Z,10.80
2023-02-11T10:38:41.097Z,10.80
2023-02-11T10:41:30.152Z,10.70
2023-02-11T10:43:56.797Z,10.70
2023-02-11T10:46:26.761Z,10.80
2023-02-11T10:48:54.144Z,10.80
2023-02-11T10:51:34.353Z,10.80
2023-02-11T10:54:04.192Z,10.80
2023-02-11T10:56:32.958Z,10.80
2023-02-11T10:59:21.362Z,10.80
2023-02-11T11:02:18.126Z,10.80
2023-02-11T11:04:45.357Z,10.90
2023-02-11T11:07:22.879Z,10.90
2023-02-11T11:09:53.914Z,10.90
2023-02-11T11:12:28.137Z,11.00
2023-02-11T11:14:56.190Z,11.00
2023-02-11T11:17:23.001Z,11.00
2023-02-11T11:19:49.672Z,10.90
2023-02-11T11:22:23.631Z,10.90
2023-02-11T11:24:55.505Z,11.00
2023-02-11T11:27:24.034Z,11.00
2023-02-11T11:29:53.783Z,11.10
2023-02-11T11:32:25.364Z,11.10
2023-02-11T11:34:55.502Z,11.20
2023-02-11T11:37:37.835Z,11.20
2023-02-11T11:40:25.258Z,11.30
2023-02-11T11:43:14.728Z,11.40
2023-02-11T11:45:55.957Z,11.30
2023-02-11T11:48:37.532Z,11.30
2023-02-11T11:51:10.793Z,11.40
2023-02-11T11:53:40.617Z,11.40
2023-02-11T11:56:11.950Z,11.40
2023-02-11T11:58:38.770Z,11.40
2023-02-11T12:01:14.807Z,11.20
2023-02-11T12:04:06.816Z,11.20
2023-02-11T12:06:39.762Z,11.10
2023-02-11T12:09:27.740Z,11.20
2023-02-11T12:12:33.378Z,11.30
2023-02-11T12:15:17.630Z,11.30
2023-02-11T12:18:09.462Z,11.30
2023-02-11T12:20:51.537Z,11.20
2023-02-11T12:23:53.808Z,11.30
2023-02-11T12:26:36.422Z,11.40
2023-02-11T12:29:19.037Z,11.30
2023-02-11T12:31:49.154Z,11.30
2023-02-11T12:34:36.203Z,11.40
2023-02-11T12:37:20.628Z,11.50
2023-02-11T12:40:14.761Z,11.50
2023-02-11T12:43:18.919Z,11.50
2023-02-11T12:46:03.852Z,11.50
2023-02-11T12:48:43.617Z,11.60
2023-02-11T12:51:19.757Z,11.60
2023-02-11T12:54:09.190Z,11.60
2023-02-11T12:56:45.500Z,11.60
2023-02-11T12:59:29.169Z,11.70
2023-02-11T13:01:55.967Z,11.70
2023-02-11T13:04:50.591Z,11.70
2023-02-11T13:07:28.309Z,11.70
2023-02-11T13:09:58.846Z,11.70
2023-02-11T13:12:48.455Z,11.70
2023-02-11T13:15:15.637Z,11.60
2023-02-11T13:17:54.661Z,11.50
2023-02-11T13:20:31.876Z,11.50
2023-02-11T13:23:20.543Z,11.50
2023-02-11T13:26:04.735Z,11.50
2023-02-11T13:28:47.393Z,11.50
2023-02-11T13:31:16.593Z,11.60
2023-02-11T13:33:44.382Z,11.60
2023-02-11T13:36:13.232Z,11.60
2023-02-11T13:38:40.014Z,11.60
2023-02-11T13:41:21.154Z,11.50
2023-02-11T13:43:58.357Z,11.50
2023-02-11T13:46:25.335Z,11.50
2023-02-11T13:48:53.049Z,11.50
2023-02-11T13:51:35.200Z,11.50
2023-02-11T13:54:02.357Z,11.50
2023-02-11T13:56:39.801Z,11.40
2023-02-11T13:59:25.535Z,11.30
2023-02-11T14:02:23.028Z,11.30
2023-02-11T14:05:23.663Z,11.30
2023-02-11T14:08:30.740Z,11.30
2023-02-11T14:11:14.708Z,11.20
2023-02-11T14:13:47.612Z,11.30
2023-02-11T14:16:20.374Z,11.20
2023-02-11T14:18:55.293Z,11.30
2023-02-11T14:21:32.555Z,11.30
2023-02-11T14:24:02.233Z,11.30
2023-02-11T14:26:50.603Z,11.30
2023-02-11T14:29:26.470Z,11.20
2023-02-11T14:32:15.357Z,11.20
2023-02-11T14:35:11.255Z,11.20
2023-02-11T14:38:05.927Z,11.20
2023-02-11T14:40:52.424Z,11.20
2023-02-11T14:43:21.297Z,11.10
2023-02-11T14:45:51.396Z,11.00
2023-02-11T14:48:19.061Z,11.10
2023-02-11T14:50:51.536Z,11.00
2023-02-11T14:53:22.129Z,11.10
2023-02-11T14:55:52.218Z,11.10
2023-02-11T14:58:23.476Z,11.10
2023-02-11T15:00:57.361Z,11.10
2023-02-11T15:03:37.657Z,11.10
2023-02-11T15:06:08.266Z,11.10
2023-02-11T15:08:36.686Z,11.00
2023-02-11T15:11:04.221Z,11.00
2023-02-11T15:13:31.176Z,11.00
2023-02-11T15:16:05.349Z,11.00
2023-02-11T15:18:35.650Z,10.90
2023-02-11T15:21:02.565Z,10.90
2023-02-11T15:23:29.724Z,10.90
2023-02-11T15:25:56.649Z,10.90
2023-02-11T15:28:28.887Z,10.90
2023-02-11T15:31:05.022Z,10.90
2023-02-11T15:33:32.346Z,10.90
2023-02-11T15:36:02.391Z,10.90
2023-02-11T15:38:32.285Z,10.90
2023-02-11T15:41:02.502Z,10.90
2023-02-11T15:43:51.068Z,10.90
2023-02-11T15:46:19.833Z,11.00
2023-02-11T15:48:53.466Z,11.00
2023-02-11T15:51:35.097Z,10.90
2023-02-11T15:54:19.595Z,10.80
2023-02-11T15:56:50.730Z,10.80
2023-02-11T15:59:25.762Z,10.80
2023-02-11T16:01:52.670Z,10.70
2023-02-11T16:04:21.756Z,10.70
2023-02-11T16:06:48.732Z,10.70
2023-02-11T16:09:15.395Z,10.70
2023-02-11T16:11:48.163Z,10.70
2023-02-11T16:14:27.610Z,10.70
2023-02-11T16:16:56.802Z,10.60
2023-02-11T16:19:25.645Z,10.60
2023-02-11T16:21:53.149Z,10.60
2023-02-11T16:24:24.459Z,10.60
2023-02-11T16:26:52.915Z,10.50
2023-02-11T16:29:26.029Z,10.50
2023-02-11T16:31:53.208Z,10.50
2023-02-11T16:34:22.022Z,10.50
2023-02-11T16:36:48.955Z,10.50
2023-02-11T16:39:16.825Z,10.50
2023-02-11T16:41:43.667Z,10.40
2023-02-11T16:44:10.383Z,10.40
2023-02-11T16:46:37.346Z,10.40
2023-02-11T16:49:31.371Z,10.40
2023-02-11T16:52:01.933Z,10.40
2023-02-11T16:54:29.346Z,10.40
2023-02-11T16:56:56.262Z,10.40
2023-02-11T16:59:23.478Z,10.40
2023-02-11T17:01:50.348Z,10.30
2023-02-11T17:04:21.804Z,10.20
2023-02-11T17:06:48.753Z,10.20
2023-02-11T17:09:18.459Z,10.20
2023-02-11T17:11:45.196Z,10.20
2023-02-11T17:14:11.919Z,10.30
2023-02-11T17:16:38.688Z,10.30
2023-02-11T17:19:05.426Z,10.30
2023-02-11T17:21:32.178Z,10.20
2023-02-11T17:23:59.442Z,10.20
2023-02-11T17:26:26.159Z,10.20
2023-02-11T17:28:53.552Z,10.30
2023-02-11T17:31:20.319Z,10.20
2023-02-11T17:33:48.301Z,10.20
2023-02-11T17:36:14.992Z,10.20
2023-02-11T17:38:45.018Z,10.20
2023-02-11T17:41:12.761Z,10.20
2023-02-11T17:43:39.732Z,10.20
2023-02-11T17:46:08.087Z,10.20
2023-02-11T17:48:34.910Z,10.20
2023-02-11T17:51:01.719Z,10.30
2023-02-11T17:53:28.676Z,10.30
2023-02-11T17:55:56.160Z,10.30
2023-02-11T17:58:23.620Z,10.30
2023-02-11T18:00:50.314Z,10.30
2023-02-11T18:03:17.241Z,10.30
2023-02-11T18:05:43.993Z,10.30
2023-02-11T18:08:10.713Z,10.20
2023-02-11T18:10:38.000Z,10.20
2023-02-11T18:13:04.688Z,10.20
2023-02-11T18:15:33.049Z,10.20
2023-02-11T18:17:59.738Z,10.10
2023-02-11T18:20:26.576Z,10.10
2023-02-11T18:22:53.314Z,10.10
2023-02-11T18:25:20.141Z,10.00
2023-02-11T18:27:46.882Z,10.00
2023-02-11T18:30:21.055Z,10.00
2023-02-11T18:32:47.820Z,9.90
2023-02-11T18:35:15.613Z,9.90
2023-02-11T18:37:44.893Z,9.90
2023-02-11T18:40:12.411Z,9.90
2023-02-11T18:42:39.182Z,9.90
2023-02-11T18:45:09.928Z,9.90
2023-02-11T18:47:37.865Z,10.00
2023-02-11T18:50:05.936Z,10.00
2023-02-11T18:52:33.681Z,10.00
2023-02-11T18:55:00.391Z,9.90
2023-02-11T18:57:27.079Z,9.90
2023-02-11T18:59:54.107Z,9.90
2023-02-11T19:02:20.905Z,9.90
2023-02-11T19:04:49.089Z,9.90
2023-02-11T19:07:15.798Z,9.90
2023-02-11T19:09:42.629Z,9.90
2023-02-11T19:12:09.574Z,9.90
2023-02-11T19:14:37.460Z,9.90
2023-02-11T19:17:05.808Z,9.90
2023-02-11T19:19:36.143Z,9.90
2023-02-11T19:22:03.314Z,9.90
2023-02-11T19:24:30.246Z,9.90
2023-02-11T19:26:58.552Z,9.90
2023-02-11T19:29:25.503Z,9.90
2023-02-11T19:31:52.402Z,9.90
2023-02-11T19:34:20.305Z,9.90
2023-02-11T19:36:47.351Z,9.90
2023-02-11T19:39:14.117Z,9.90
2023-02-11T19:41:40.833Z,9.90
2023-02-11T19:44:08.088Z,9.80
2023-02-11T19:46:37.140Z,9.80
2023-02-11T19:49:04.371Z,9.80
2023-02-11T19:51:32.782Z,9.80
2023-02-11T19:54:00.349Z,9.90
2023-02-11T19:56:28.568Z,9.80
2023-02-11T19:58:55.338Z,9.80
2023-02-11T20:01:22.556Z,9.70
2023-02-11T20:03:52.396Z,9.70
2023-02-11T20:06:28.017Z,9.70
2023-02-11T20:08:58.458Z,9.70
2023-02-11T20:11:25.779Z,9.70
2023-02-11T20:13:52.518Z,9.70
2023-02-11T20:16:20.566Z,9.70
2023-02-11T20:18:47.851Z,9.80
2023-02-11T20:21:25.141Z,9.80
2023-02-11T20:23:53.139Z,9.80
2023-02-11T20:26:21.939Z,9.80
2023-02-11T20:28:49.003Z,9.80
2023-02-11T20:31:15.956Z,9.80
2023-02-11T20:33:43.448Z,9.80
2023-02-11T20:36:18.142Z,9.70
2023-02-11T20:38:44.954Z,9.70
2023-02-11T20:41:13.935Z,9.70
2023-02-11T20:43:41.636Z,9.70
2023-02-11T20:46:08.465Z,9.70
2023-02-11T20:48:35.239Z,9.70
2023-02-11T20:51:06.378Z,9.80
2023-02-11T20:53:37.160Z,9.70
2023-02-11T20:56:04.912Z,9.70
2023-02-11T20:58:31.970Z,9.70
2023-02-11T21:01:20.377Z,9.60
2023-02-11T21:03:51.821Z,9.60
2023-02-11T21:06:19.596Z,9.60
2023-02-11T21:08:46.318Z,9.50
2023-02-11T21:11:13.370Z,9.50
2023-02-11T21:13:41.122Z,9.50
2023-02-11T21:16:08.185Z,9.50
2023-02-11T21:18:34.967Z,9.50
2023-02-11T21:21:01.626Z,9.50
2023-02-11T21:23:29.113Z,9.40
2023-02-11T21:25:56.542Z,9.40
2023-02-11T21:28:26.424Z,9.40
2023-02-11T21:30:54.079Z,9.40
2023-02-11T21:33:20.931Z,9.50
2023-02-11T21:35:47.730Z,9.40
2023-02-11T21:38:14.775Z,9.50
2023-02-11T21:40:41.531Z,9.40
2023-02-11T21:43:08.250Z,9.40
2023-02-11T21:45:34.925Z,9.40
2023-02-11T21:48:01.737Z,9.40
2023-02-11T21:50:28.474Z,9.40
2023-02-11T21:52:55.164Z,9.40
2023-02-11T21:55:22.067Z,9.40
2023-02-11T21:57:48.887Z,9.40
2023-02-11T22:00:16.691Z,9.40
2023-02-11T22:02:43.461Z,9.40
2023-02-11T22:05:10.211Z,9.40
2023-02-11T22:07:37.099Z,9.40
2023-02-11T22:10:04.022Z,9.50
2023-02-11T22:12:30.783Z,9.50
2023-02-11T22:14:57.521Z,9.50
2023-02-11T22:17:24.338Z,9.50
2023-02-11T22:19:51.305Z,9.50
2023-02-11T22:22:19.701Z,9.50
2023-02-11T22:24:46.642Z,9.50
2023-02-11T22:27:14.033Z,9.50
2023-02-11T22:29:40.707Z,9.40
2023-02-11T22:32:07.668Z,9.50
2023-02-11T22:34:34.461Z,9.50
2023-02-11T22:37:02.348Z,9.40
2023-02-11T22:39:29.252Z,9.40
2023-02-11T22:41:56.667Z,9.40
2023-02-11T22:44:23.987Z,9.40
2023-02-11T22:46:51.346Z,9.40
2023-02-11T22:49:19.178Z,9.40
2023-02-11T22:51:46.316Z,9.40
2023-02-11T22:54:17.161Z,9.30
2023-02-11T22:56:44.031Z,9.30
2023-02-11T22:59:12.578Z,9.30
2023-02-11T23:01:39.429Z,9.30
2023-02-11T23:04:07.085Z,9.30
2023-02-11T23:06:33.994Z,9.30
2023-02-11T23:09:00.668Z,9.30
2023-02-11T23:11:28.448Z,9.20
2023-02-11T23:13:55.171Z,9.20
2023-02-11T23:16:24.192Z,9.20
2023-02-11T23:18:51.207Z,9.20
2023-02-11T23:21:26.000Z,9.20
2023-02-11T23:24:01.004Z,9.10
2023-02-11T23:26:28.089Z,9.10
2023-02-11T23:28:54.944Z,9.10
2023-02-11T23:31:34.072Z,9.00
2023-02-11T23:34:01.368Z,9.00
2023-02-11T23:36:28.463Z,9.10
2023-02-11T23:38:55.458Z,9.10
2023-02-11T23:41:22.143Z,9.10
2023-02-11T23:43:52.077Z,9.10
2023-02-11T23:46:19.258Z,9.10
2023-02-11T23:48:46.065Z,9.10
2023-02-11T23:51:12.806Z,9.10
2023-02-11T23:53:39.694Z,9.00
2023-02-11T23:56:08.091Z,9.00
2023-02-11T23:58:35.151Z,9.00
